sensor_id;sensor_type;location;lat;lon;timestamp;temperature;humidity
24744;DHT22;12844;52.110;5.548;2022-10-20T00:01:27;19.90;56.30
24744;DHT22;12844;52.110;5.548;2022-10-20T00:03:53;19.90;56.30
24744;DHT22;12844;52.110;5.548;2022-10-20T00:06:25;19.90;56.30
24744;DHT22;12844;52.110;5.548;2022-10-20T00:08:52;19.90;56.30
24744;DHT22;12844;52.110;5.548;2022-10-20T00:11:19;19.90;56.30
24744;DHT22;12844;52.110;5.548;2022-10-20T00:13:46;19.90;56.30
24744;DHT22;12844;52.110;5.548;2022-10-20T00:16:13;19.90;56.30
24744;DHT22;12844;52.110;5.548;2022-10-20T00:18:38;19.90;56.30
24744;DHT22;12844;52.110;5.548;2022-10-20T00:21:11;19.90;56.40
24744;DHT22;12844;52.110;5.548;2022-10-20T00:23:37;19.90;56.30
24744;DHT22;12844;52.110;5.548;2022-10-20T00:26:05;19.80;56.30
24744;DHT22;12844;52.110;5.548;2022-10-20T00:28:32;19.80;56.30
24744;DHT22;12844;52.110;5.548;2022-10-20T00:30:58;19.90;56.30
24744;DHT22;12844;52.110;5.548;2022-10-20T00:33:24;19.80;56.30
24744;DHT22;12844;52.110;5.548;2022-10-20T00:35:50;19.80;56.30
24744;DHT22;12844;52.110;5.548;2022-10-20T00:38:16;19.80;56.30
24744;DHT22;12844;52.110;5.548;2022-10-20T00:40:41;19.80;56.30
24744;DHT22;12844;52.110;5.548;2022-10-20T00:43:11;19.80;56.30
24744;DHT22;12844;52.110;5.548;2022-10-20T00:45:37;19.80;56.30
24744;DHT22;12844;52.110;5.548;2022-10-20T00:48:07;19.80;56.30
24744;DHT22;12844;52.110;5.548;2022-10-20T00:50:47;19.80;56.30
24744;DHT22;12844;52.110;5.548;2022-10-20T00:53:14;19.80;56.30
24744;DHT22;12844;52.110;5.548;2022-10-20T00:55:41;19.80;56.30
24744;DHT22;12844;52.110;5.548;2022-10-20T00:58:10;19.80;56.30
24744;DHT22;12844;52.110;5.548;2022-10-20T01:00:37;19.80;56.30
24744;DHT22;12844;52.110;5.548;2022-10-20T01:03:05;19.80;56.30
24744;DHT22;12844;52.110;5.548;2022-10-20T01:05:32;19.80;56.30
24744;DHT22;12844;52.110;5.548;2022-10-20T01:07:57;19.80;56.30
24744;DHT22;12844;52.110;5.548;2022-10-20T01:10:26;19.80;56.90
24744;DHT22;12844;52.110;5.548;2022-10-20T01:13:04;19.80;56.30
24744;DHT22;12844;52.110;5.548;2022-10-20T01:15:59;19.80;56.30
24744;DHT22;12844;52.110;5.548;2022-10-20T01:18:39;19.80;56.20
24744;DHT22;12844;52.110;5.548;2022-10-20T01:32:42;19.80;56.30
24744;DHT22;12844;52.110;5.548;2022-10-20T01:35:31;19.80;56.40
24744;DHT22;12844;52.110;5.548;2022-10-20T01:40:35;19.70;56.20
24744;DHT22;12844;52.110;5.548;2022-10-20T01:43:05;19.70;56.20
24744;DHT22;12844;52.110;5.548;2022-10-20T01:45:33;19.70;56.20
24744;DHT22;12844;52.110;5.548;2022-10-20T01:48:03;19.70;56.20
24744;DHT22;12844;52.110;5.548;2022-10-20T01:50:31;19.70;56.20
24744;DHT22;12844;52.110;5.548;2022-10-20T01:52:58;19.70;56.20
24744;DHT22;12844;52.110;5.548;2022-10-20T01:55:24;19.70;56.20
24744;DHT22;12844;52.110;5.548;2022-10-20T02:00:58;19.70;56.10
24744;DHT22;12844;52.110;5.548;2022-10-20T02:03:50;19.70;56.20
24744;DHT22;12844;52.110;5.548;2022-10-20T02:09:07;19.70;56.20
24744;DHT22;12844;52.110;5.548;2022-10-20T02:12:01;19.70;56.20
24744;DHT22;12844;52.110;5.548;2022-10-20T02:14:29;19.70;56.20
24744;DHT22;12844;52.110;5.548;2022-10-20T02:16:59;19.70;56.20
24744;DHT22;12844;52.110;5.548;2022-10-20T02:19:32;19.70;56.20
24744;DHT22;12844;52.110;5.548;2022-10-20T02:22:00;19.70;56.20
24744;DHT22;12844;52.110;5.548;2022-10-20T02:24:28;19.70;56.20
24744;DHT22;12844;52.110;5.548;2022-10-20T02:26:58;19.70;56.20
24744;DHT22;12844;52.110;5.548;2022-10-20T02:29:34;19.60;56.20
24744;DHT22;12844;52.110;5.548;2022-10-20T02:32:01;19.70;56.20
24744;DHT22;12844;52.110;5.548;2022-10-20T02:34:27;19.70;56.20
24744;DHT22;12844;52.110;5.548;2022-10-20T02:36:56;19.70;56.20
24744;DHT22;12844;52.110;5.548;2022-10-20T02:39:22;19.70;56.20
24744;DHT22;12844;52.110;5.548;2022-10-20T02:41:48;19.60;56.20
24744;DHT22;12844;52.110;5.548;2022-10-20T02:44:14;19.60;56.20
24744;DHT22;12844;52.110;5.548;2022-10-20T02:46:39;19.60;56.10
24744;DHT22;12844;52.110;5.548;2022-10-20T02:49:05;19.60;56.10
24744;DHT22;12844;52.110;5.548;2022-10-20T02:51:30;19.60;56.80
24744;DHT22;12844;52.110;5.548;2022-10-20T02:53:56;19.60;56.20
24744;DHT22;12844;52.110;5.548;2022-10-20T02:56:21;19.60;56.20
24744;DHT22;12844;52.110;5.548;2022-10-20T02:58:47;19.60;56.20
24744;DHT22;12844;52.110;5.548;2022-10-20T03:11:35;19.60;56.10
24744;DHT22;12844;52.110;5.548;2022-10-20T03:14:00;19.60;56.00
24744;DHT22;12844;52.110;5.548;2022-10-20T03:16:26;19.60;56.00
24744;DHT22;12844;52.110;5.548;2022-10-20T03:18:52;19.60;56.10
24744;DHT22;12844;52.110;5.548;2022-10-20T03:21:17;19.60;56.10
24744;DHT22;12844;52.110;5.548;2022-10-20T03:23:43;19.60;56.10
24744;DHT22;12844;52.110;5.548;2022-10-20T03:26:10;19.60;56.10
24744;DHT22;12844;52.110;5.548;2022-10-20T03:28:36;19.60;56.10
24744;DHT22;12844;52.110;5.548;2022-10-20T03:31:01;19.60;56.10
24744;DHT22;12844;52.110;5.548;2022-10-20T03:33:27;19.60;56.20
24744;DHT22;12844;52.110;5.548;2022-10-20T03:35:52;19.60;56.20
24744;DHT22;12844;52.110;5.548;2022-10-20T03:38:18;19.60;56.10
24744;DHT22;12844;52.110;5.548;2022-10-20T03:40:44;19.60;56.10
24744;DHT22;12844;52.110;5.548;2022-10-20T03:43:09;19.60;56.10
24744;DHT22;12844;52.110;5.548;2022-10-20T03:45:35;19.60;56.20
24744;DHT22;12844;52.110;5.548;2022-10-20T03:48:00;19.60;56.10
24744;DHT22;12844;52.110;5.548;2022-10-20T03:50:26;19.50;56.10
24744;DHT22;12844;52.110;5.548;2022-10-20T03:52:51;19.50;56.10
24744;DHT22;12844;52.110;5.548;2022-10-20T03:55:18;19.50;56.10
24744;DHT22;12844;52.110;5.548;2022-10-20T03:57:43;19.50;56.10
24744;DHT22;12844;52.110;5.548;2022-10-20T04:00:10;19.50;56.00
24744;DHT22;12844;52.110;5.548;2022-10-20T04:02:43;19.50;56.10
24744;DHT22;12844;52.110;5.548;2022-10-20T04:05:14;19.50;56.10
24744;DHT22;12844;52.110;5.548;2022-10-20T04:07:40;19.50;56.10
24744;DHT22;12844;52.110;5.548;2022-10-20T04:10:07;19.50;56.10
24744;DHT22;12844;52.110;5.548;2022-10-20T04:12:33;19.50;56.10
24744;DHT22;12844;52.110;5.548;2022-10-20T04:14:58;19.50;56.10
24744;DHT22;12844;52.110;5.548;2022-10-20T04:17:24;19.50;56.10
24744;DHT22;12844;52.110;5.548;2022-10-20T04:19:49;19.50;56.10
24744;DHT22;12844;52.110;5.548;2022-10-20T04:22:15;19.50;56.10
24744;DHT22;12844;52.110;5.548;2022-10-20T04:24:40;19.50;56.10
24744;DHT22;12844;52.110;5.548;2022-10-20T04:27:06;19.50;56.10
24744;DHT22;12844;52.110;5.548;2022-10-20T04:29:32;19.50;56.10
24744;DHT22;12844;52.110;5.548;2022-10-20T04:31:57;19.50;56.10
24744;DHT22;12844;52.110;5.548;2022-10-20T04:34:23;19.50;56.10
24744;DHT22;12844;52.110;5.548;2022-10-20T04:36:49;19.50;56.10
24744;DHT22;12844;52.110;5.548;2022-10-20T04:39:14;19.50;56.10
24744;DHT22;12844;52.110;5.548;2022-10-20T04:41:40;19.40;56.00
24744;DHT22;12844;52.110;5.548;2022-10-20T04:44:06;19.50;56.00
24744;DHT22;12844;52.110;5.548;2022-10-20T04:46:31;19.50;56.10
24744;DHT22;12844;52.110;5.548;2022-10-20T04:48:57;19.50;56.10
24744;DHT22;12844;52.110;5.548;2022-10-20T04:51:22;19.40;56.00
24744;DHT22;12844;52.110;5.548;2022-10-20T04:53:48;19.40;56.10
24744;DHT22;12844;52.110;5.548;2022-10-20T04:56:16;19.40;56.10
24744;DHT22;12844;52.110;5.548;2022-10-20T04:58:52;19.40;56.10
24744;DHT22;12844;52.110;5.548;2022-10-20T05:01:20;19.50;56.10
24744;DHT22;12844;52.110;5.548;2022-10-20T05:03:46;19.40;56.10
24744;DHT22;12844;52.110;5.548;2022-10-20T05:06:18;19.40;56.10
24744;DHT22;12844;52.110;5.548;2022-10-20T05:08:46;19.40;56.10
24744;DHT22;12844;52.110;5.548;2022-10-20T05:11:13;19.40;56.10
24744;DHT22;12844;52.110;5.548;2022-10-20T05:13:39;19.40;56.10
24744;DHT22;12844;52.110;5.548;2022-10-20T05:16:05;19.40;56.10
24744;DHT22;12844;52.110;5.548;2022-10-20T05:18:31;19.40;56.10
24744;DHT22;12844;52.110;5.548;2022-10-20T05:20:57;19.40;56.70
24744;DHT22;12844;52.110;5.548;2022-10-20T05:23:23;19.40;56.10
24744;DHT22;12844;52.110;5.548;2022-10-20T05:25:49;19.40;56.10
24744;DHT22;12844;52.110;5.548;2022-10-20T05:28:14;19.40;56.00
24744;DHT22;12844;52.110;5.548;2022-10-20T05:30:40;19.40;56.10
24744;DHT22;12844;52.110;5.548;2022-10-20T05:33:05;19.40;56.10
24744;DHT22;12844;52.110;5.548;2022-10-20T05:35:31;19.40;56.10
24744;DHT22;12844;52.110;5.548;2022-10-20T05:37:57;19.40;56.10
24744;DHT22;12844;52.110;5.548;2022-10-20T05:40:23;19.30;56.00
24744;DHT22;12844;52.110;5.548;2022-10-20T05:42:48;19.40;56.10
24744;DHT22;12844;52.110;5.548;2022-10-20T05:45:14;19.30;56.00
24744;DHT22;12844;52.110;5.548;2022-10-20T05:47:39;19.30;56.00
24744;DHT22;12844;52.110;5.548;2022-10-20T05:50:08;19.40;56.10
24744;DHT22;12844;52.110;5.548;2022-10-20T05:52:33;19.40;56.10
24744;DHT22;12844;52.110;5.548;2022-10-20T05:54:59;19.40;56.10
24744;DHT22;12844;52.110;5.548;2022-10-20T05:57:25;19.30;56.10
24744;DHT22;12844;52.110;5.548;2022-10-20T05:59:50;19.40;56.10
24744;DHT22;12844;52.110;5.548;2022-10-20T06:02:16;19.40;56.10
24744;DHT22;12844;52.110;5.548;2022-10-20T06:04:41;19.40;56.10
24744;DHT22;12844;52.110;5.548;2022-10-20T06:07:07;19.30;56.10
24744;DHT22;12844;52.110;5.548;2022-10-20T06:09:36;19.30;56.10
24744;DHT22;12844;52.110;5.548;2022-10-20T06:12:01;19.30;56.00
24744;DHT22;12844;52.110;5.548;2022-10-20T06:14:27;19.40;56.10
24744;DHT22;12844;52.110;5.548;2022-10-20T06:16:54;19.40;56.10
24744;DHT22;12844;52.110;5.548;2022-10-20T06:19:20;19.40;56.10
24744;DHT22;12844;52.110;5.548;2022-10-20T06:21:46;19.30;56.00
24744;DHT22;12844;52.110;5.548;2022-10-20T06:24:12;19.30;56.10
24744;DHT22;12844;52.110;5.548;2022-10-20T06:26:38;19.30;56.10
24744;DHT22;12844;52.110;5.548;2022-10-20T06:29:06;19.30;56.70
24744;DHT22;12844;52.110;5.548;2022-10-20T06:31:35;19.30;56.00
24744;DHT22;12844;52.110;5.548;2022-10-20T06:34:08;19.30;56.00
24744;DHT22;12844;52.110;5.548;2022-10-20T06:36:38;19.30;56.10
24744;DHT22;12844;52.110;5.548;2022-10-20T06:39:05;19.30;56.00
24744;DHT22;12844;52.110;5.548;2022-10-20T06:41:32;19.30;56.00
24744;DHT22;12844;52.110;5.548;2022-10-20T06:43:57;19.30;56.10
24744;DHT22;12844;52.110;5.548;2022-10-20T06:46:29;19.30;56.00
24744;DHT22;12844;52.110;5.548;2022-10-20T06:48:55;19.30;56.00
24744;DHT22;12844;52.110;5.548;2022-10-20T06:51:21;19.30;56.10
24744;DHT22;12844;52.110;5.548;2022-10-20T06:53:47;19.30;56.00
24744;DHT22;12844;52.110;5.548;2022-10-20T06:56:15;19.30;56.00
24744;DHT22;12844;52.110;5.548;2022-10-20T06:58:42;19.30;56.00
24744;DHT22;12844;52.110;5.548;2022-10-20T07:01:10;19.30;56.00
24744;DHT22;12844;52.110;5.548;2022-10-20T07:03:37;19.30;56.00
24744;DHT22;12844;52.110;5.548;2022-10-20T07:06:04;19.30;56.10
24744;DHT22;12844;52.110;5.548;2022-10-20T07:08:32;19.30;56.10
24744;DHT22;12844;52.110;5.548;2022-10-20T07:11:27;19.30;56.00
24744;DHT22;12844;52.110;5.548;2022-10-20T07:13:54;19.30;55.90
24744;DHT22;12844;52.110;5.548;2022-10-20T07:16:22;19.30;56.00
24744;DHT22;12844;52.110;5.548;2022-10-20T07:18:48;19.30;56.00
24744;DHT22;12844;52.110;5.548;2022-10-20T07:21:16;19.30;56.00
24744;DHT22;12844;52.110;5.548;2022-10-20T07:23:42;19.30;56.00
24744;DHT22;12844;52.110;5.548;2022-10-20T07:26:27;19.30;55.90
24744;DHT22;12844;52.110;5.548;2022-10-20T07:28:56;19.30;55.80
24744;DHT22;12844;52.110;5.548;2022-10-20T07:31:27;19.30;55.90
24744;DHT22;12844;52.110;5.548;2022-10-20T07:33:53;19.30;55.80
24744;DHT22;12844;52.110;5.548;2022-10-20T07:36:24;19.30;55.80
24744;DHT22;12844;52.110;5.548;2022-10-20T07:38:51;19.40;55.80
24744;DHT22;12844;52.110;5.548;2022-10-20T07:41:17;19.40;55.80
24744;DHT22;12844;52.110;5.548;2022-10-20T07:43:43;19.40;55.70
24744;DHT22;12844;52.110;5.548;2022-10-20T07:46:10;19.40;55.60
24744;DHT22;12844;52.110;5.548;2022-10-20T07:48:36;19.40;55.60
24744;DHT22;12844;52.110;5.548;2022-10-20T07:53:46;19.50;55.40
24744;DHT22;12844;52.110;5.548;2022-10-20T07:56:13;19.40;55.40
24744;DHT22;12844;52.110;5.548;2022-10-20T07:58:39;19.50;55.40
24744;DHT22;12844;52.110;5.548;2022-10-20T08:01:06;19.50;55.40
24744;DHT22;12844;52.110;5.548;2022-10-20T08:03:31;19.50;55.30
24744;DHT22;12844;52.110;5.548;2022-10-20T08:05:57;19.50;55.30
24744;DHT22;12844;52.110;5.548;2022-10-20T08:08:22;19.50;55.30
24744;DHT22;12844;52.110;5.548;2022-10-20T08:10:48;19.50;55.30
24744;DHT22;12844;52.110;5.548;2022-10-20T08:13:13;19.60;55.20
24744;DHT22;12844;52.110;5.548;2022-10-20T08:15:39;19.60;55.20
24744;DHT22;12844;52.110;5.548;2022-10-20T08:18:04;19.60;55.10
24744;DHT22;12844;52.110;5.548;2022-10-20T08:20:30;19.60;55.10
24744;DHT22;12844;52.110;5.548;2022-10-20T08:22:56;19.60;55.10
24744;DHT22;12844;52.110;5.548;2022-10-20T08:25:22;19.60;55.00
24744;DHT22;12844;52.110;5.548;2022-10-20T08:27:48;19.60;55.00
24744;DHT22;12844;52.110;5.548;2022-10-20T08:30:13;19.60;54.90
24744;DHT22;12844;52.110;5.548;2022-10-20T08:32:39;19.60;54.90
24744;DHT22;12844;52.110;5.548;2022-10-20T08:35:05;19.60;54.90
24744;DHT22;12844;52.110;5.548;2022-10-20T08:37:31;19.60;54.90
24744;DHT22;12844;52.110;5.548;2022-10-20T08:39:57;19.60;54.90
24744;DHT22;12844;52.110;5.548;2022-10-20T08:42:23;19.60;54.80
24744;DHT22;12844;52.110;5.548;2022-10-20T08:44:50;19.60;54.80
24744;DHT22;12844;52.110;5.548;2022-10-20T08:47:34;19.60;54.70
24744;DHT22;12844;52.110;5.548;2022-10-20T08:50:04;19.60;54.60
24744;DHT22;12844;52.110;5.548;2022-10-20T08:52:30;19.60;54.70
24744;DHT22;12844;52.110;5.548;2022-10-20T08:54:57;19.60;54.60
24744;DHT22;12844;52.110;5.548;2022-10-20T08:57:26;19.60;54.70
24744;DHT22;12844;52.110;5.548;2022-10-20T08:59:54;19.60;54.80
24744;DHT22;12844;52.110;5.548;2022-10-20T09:02:23;19.60;54.80
24744;DHT22;12844;52.110;5.548;2022-10-20T09:04:52;19.60;54.80
24744;DHT22;12844;52.110;5.548;2022-10-20T09:07:30;19.60;54.70
24744;DHT22;12844;52.110;5.548;2022-10-20T09:12:47;19.60;54.80
24744;DHT22;12844;52.110;5.548;2022-10-20T09:15:16;19.60;54.80
24744;DHT22;12844;52.110;5.548;2022-10-20T09:17:45;19.60;54.80
24744;DHT22;12844;52.110;5.548;2022-10-20T09:20:20;19.60;54.80
24744;DHT22;12844;52.110;5.548;2022-10-20T09:22:47;19.60;54.60
24744;DHT22;12844;52.110;5.548;2022-10-20T09:25:15;19.60;54.80
24744;DHT22;12844;52.110;5.548;2022-10-20T09:27:42;19.60;54.70
24744;DHT22;12844;52.110;5.548;2022-10-20T09:30:31;19.60;54.70
24744;DHT22;12844;52.110;5.548;2022-10-20T09:33:18;19.60;54.70
24744;DHT22;12844;52.110;5.548;2022-10-20T09:35:46;19.60;54.80
24744;DHT22;12844;52.110;5.548;2022-10-20T09:38:25;19.60;54.80
24744;DHT22;12844;52.110;5.548;2022-10-20T09:41:18;19.60;54.80
24744;DHT22;12844;52.110;5.548;2022-10-20T09:43:51;19.60;54.60
24744;DHT22;12844;52.110;5.548;2022-10-20T09:46:21;19.60;54.60
24744;DHT22;12844;52.110;5.548;2022-10-20T09:48:48;19.60;54.70
24744;DHT22;12844;52.110;5.548;2022-10-20T09:51:17;19.60;54.60
24744;DHT22;12844;52.110;5.548;2022-10-20T09:54:05;19.60;54.60
24744;DHT22;12844;52.110;5.548;2022-10-20T09:56:40;19.70;54.60
24744;DHT22;12844;52.110;5.548;2022-10-20T09:59:17;19.60;54.60
24744;DHT22;12844;52.110;5.548;2022-10-20T10:01:58;19.60;54.70
24744;DHT22;12844;52.110;5.548;2022-10-20T10:04:35;19.70;54.70
24744;DHT22;12844;52.110;5.548;2022-10-20T10:07:02;19.60;54.60
24744;DHT22;12844;52.110;5.548;2022-10-20T10:09:34;19.60;54.60
24744;DHT22;12844;52.110;5.548;2022-10-20T10:14:30;19.60;54.60
24744;DHT22;12844;52.110;5.548;2022-10-20T10:16:57;19.70;54.70
24744;DHT22;12844;52.110;5.548;2022-10-20T10:19:29;19.60;54.60
24744;DHT22;12844;52.110;5.548;2022-10-20T10:21:58;19.70;54.60
24744;DHT22;12844;52.110;5.548;2022-10-20T10:24:42;19.70;54.60
24744;DHT22;12844;52.110;5.548;2022-10-20T10:29:48;19.70;54.60
24744;DHT22;12844;52.110;5.548;2022-10-20T10:32:43;19.70;54.60
24744;DHT22;12844;52.110;5.548;2022-10-20T10:37:59;19.70;54.60
24744;DHT22;12844;52.110;5.548;2022-10-20T10:40:38;19.70;54.60
24744;DHT22;12844;52.110;5.548;2022-10-20T10:43:20;19.70;54.70
24744;DHT22;12844;52.110;5.548;2022-10-20T10:46:01;19.60;54.70
24744;DHT22;12844;52.110;5.548;2022-10-20T10:48:42;19.70;54.80
24744;DHT22;12844;52.110;5.548;2022-10-20T10:53:58;19.70;54.70
24744;DHT22;12844;52.110;5.548;2022-10-20T10:56:45;19.70;54.70
24744;DHT22;12844;52.110;5.548;2022-10-20T10:59:32;19.70;54.70
24744;DHT22;12844;52.110;5.548;2022-10-20T11:02:15;19.70;54.70
24744;DHT22;12844;52.110;5.548;2022-10-20T11:04:47;19.70;54.80
24744;DHT22;12844;52.110;5.548;2022-10-20T11:12:42;19.70;54.80
24744;DHT22;12844;52.110;5.548;2022-10-20T11:15:33;19.70;54.80
24744;DHT22;12844;52.110;5.548;2022-10-20T11:20:56;19.60;54.80
24744;DHT22;12844;52.110;5.548;2022-10-20T11:23:49;19.70;54.90
24744;DHT22;12844;52.110;5.548;2022-10-20T11:26:50;19.60;54.80
24744;DHT22;12844;52.110;5.548;2022-10-20T11:29:27;19.60;54.90
24744;DHT22;12844;52.110;5.548;2022-10-20T11:32:17;19.60;54.90
24744;DHT22;12844;52.110;5.548;2022-10-20T11:37:37;19.60;54.80
24744;DHT22;12844;52.110;5.548;2022-10-20T11:42:41;19.60;55.00
24744;DHT22;12844;52.110;5.548;2022-10-20T11:48:30;19.70;54.90
24744;DHT22;12844;52.110;5.548;2022-10-20T11:51:16;19.70;54.90
24744;DHT22;12844;52.110;5.548;2022-10-20T11:59:53;19.60;55.00
24744;DHT22;12844;52.110;5.548;2022-10-20T12:06:04;19.60;55.00
24744;DHT22;12844;52.110;5.548;2022-10-20T12:19:32;19.60;55.00
24744;DHT22;12844;52.110;5.548;2022-10-20T12:22:04;19.60;55.00
24744;DHT22;12844;52.110;5.548;2022-10-20T12:24:41;19.60;55.20
24744;DHT22;12844;52.110;5.548;2022-10-20T12:34:47;19.60;55.00
24744;DHT22;12844;52.110;5.548;2022-10-20T12:37:36;19.60;55.10
24744;DHT22;12844;52.110;5.548;2022-10-20T12:42:39;19.60;55.10
24744;DHT22;12844;52.110;5.548;2022-10-20T12:50:27;19.60;55.10
24744;DHT22;12844;52.110;5.548;2022-10-20T12:52:57;19.60;55.00
24744;DHT22;12844;52.110;5.548;2022-10-20T12:55:36;19.60;55.00
24744;DHT22;12844;52.110;5.548;2022-10-20T12:58:31;19.60;55.00
24744;DHT22;12844;52.110;5.548;2022-10-20T13:03:47;19.70;55.00
24744;DHT22;12844;52.110;5.548;2022-10-20T13:16:44;19.70;55.00
24744;DHT22;12844;52.110;5.548;2022-10-20T13:19:15;19.60;55.00
24744;DHT22;12844;52.110;5.548;2022-10-20T13:21:42;19.60;55.00
24744;DHT22;12844;52.110;5.548;2022-10-20T13:26:47;19.70;55.00
24744;DHT22;12844;52.110;5.548;2022-10-20T13:29:39;19.70;55.00
24744;DHT22;12844;52.110;5.548;2022-10-20T13:51:24;19.60;55.50
24744;DHT22;12844;52.110;5.548;2022-10-20T13:53:53;19.60;55.60
24744;DHT22;12844;52.110;5.548;2022-10-20T13:56:45;19.60;55.60
24744;DHT22;12844;52.110;5.548;2022-10-20T14:01:49;19.60;55.60
24744;DHT22;12844;52.110;5.548;2022-10-20T14:04:23;19.60;55.60
24744;DHT22;12844;52.110;5.548;2022-10-20T14:06:49;19.60;55.60
24744;DHT22;12844;52.110;5.548;2022-10-20T14:09:23;19.60;55.60
24744;DHT22;12844;52.110;5.548;2022-10-20T14:12:01;19.60;55.60
24744;DHT22;12844;52.110;5.548;2022-10-20T14:14:29;19.60;55.60
24744;DHT22;12844;52.110;5.548;2022-10-20T14:17:00;19.60;55.60
24744;DHT22;12844;52.110;5.548;2022-10-20T14:19:27;19.60;55.60
24744;DHT22;12844;52.110;5.548;2022-10-20T14:22:09;19.60;55.60
24744;DHT22;12844;52.110;5.548;2022-10-20T14:24:39;19.60;55.60
24744;DHT22;12844;52.110;5.548;2022-10-20T14:27:22;19.60;55.60
24744;DHT22;12844;52.110;5.548;2022-10-20T14:29:50;19.60;55.60
24744;DHT22;12844;52.110;5.548;2022-10-20T14:32:21;19.60;55.60
24744;DHT22;12844;52.110;5.548;2022-10-20T14:35:13;19.60;55.60
24744;DHT22;12844;52.110;5.548;2022-10-20T14:38:00;19.60;55.60
24744;DHT22;12844;52.110;5.548;2022-10-20T14:40:30;19.60;55.60
24744;DHT22;12844;52.110;5.548;2022-10-20T14:42:58;19.60;55.60
24744;DHT22;12844;52.110;5.548;2022-10-20T14:45:26;19.60;55.60
24744;DHT22;12844;52.110;5.548;2022-10-20T14:47:52;19.60;55.60
24744;DHT22;12844;52.110;5.548;2022-10-20T14:50:31;19.60;55.60
24744;DHT22;12844;52.110;5.548;2022-10-20T14:55:43;19.60;55.60
24744;DHT22;12844;52.110;5.548;2022-10-20T14:58:51;19.60;55.60
24744;DHT22;12844;52.110;5.548;2022-10-20T15:01:29;19.60;55.50
24744;DHT22;12844;52.110;5.548;2022-10-20T15:04:13;19.60;55.60
24744;DHT22;12844;52.110;5.548;2022-10-20T15:06:41;19.60;55.60
24744;DHT22;12844;52.110;5.548;2022-10-20T15:09:26;19.60;55.60
24744;DHT22;12844;52.110;5.548;2022-10-20T15:11:54;19.60;55.60
24744;DHT22;12844;52.110;5.548;2022-10-20T15:14:20;19.60;55.60
24744;DHT22;12844;52.110;5.548;2022-10-20T15:16:47;19.60;55.60
24744;DHT22;12844;52.110;5.548;2022-10-20T15:19:30;19.60;55.60
24744;DHT22;12844;52.110;5.548;2022-10-20T15:22:10;19.60;55.50
24744;DHT22;12844;52.110;5.548;2022-10-20T15:24:37;19.60;55.60
24744;DHT22;12844;52.110;5.548;2022-10-20T15:27:04;19.60;55.60
24744;DHT22;12844;52.110;5.548;2022-10-20T15:29:30;19.60;55.60
24744;DHT22;12844;52.110;5.548;2022-10-20T15:31:56;19.60;55.60
24744;DHT22;12844;52.110;5.548;2022-10-20T15:34:22;19.60;55.60
24744;DHT22;12844;52.110;5.548;2022-10-20T15:36:48;19.60;55.60
24744;DHT22;12844;52.110;5.548;2022-10-20T15:39:13;19.60;55.50
24744;DHT22;12844;52.110;5.548;2022-10-20T15:41:39;19.60;55.50
24744;DHT22;12844;52.110;5.548;2022-10-20T15:44:16;19.60;55.50
24744;DHT22;12844;52.110;5.548;2022-10-20T15:46:43;19.60;55.50
24744;DHT22;12844;52.110;5.548;2022-10-20T15:49:10;19.60;55.50
24744;DHT22;12844;52.110;5.548;2022-10-20T15:51:36;19.60;55.50
24744;DHT22;12844;52.110;5.548;2022-10-20T15:54:04;19.60;55.50
24744;DHT22;12844;52.110;5.548;2022-10-20T15:56:30;19.60;55.50
24744;DHT22;12844;52.110;5.548;2022-10-20T15:58:57;19.60;55.50
24744;DHT22;12844;52.110;5.548;2022-10-20T16:01:22;19.60;55.50
24744;DHT22;12844;52.110;5.548;2022-10-20T16:03:48;19.60;55.50
24744;DHT22;12844;52.110;5.548;2022-10-20T16:06:15;19.60;55.50
24744;DHT22;12844;52.110;5.548;2022-10-20T16:08:42;19.60;55.50
24744;DHT22;12844;52.110;5.548;2022-10-20T16:11:09;19.60;55.50
24744;DHT22;12844;52.110;5.548;2022-10-20T16:13:35;19.60;55.50
24744;DHT22;12844;52.110;5.548;2022-10-20T16:16:03;19.60;55.50
24744;DHT22;12844;52.110;5.548;2022-10-20T16:18:28;19.60;55.50
24744;DHT22;12844;52.110;5.548;2022-10-20T16:20:56;19.60;55.40
24744;DHT22;12844;52.110;5.548;2022-10-20T16:23:22;19.60;55.40
24744;DHT22;12844;52.110;5.548;2022-10-20T16:25:48;19.60;55.40
24744;DHT22;12844;52.110;5.548;2022-10-20T16:28:13;19.60;55.40
24744;DHT22;12844;52.110;5.548;2022-10-20T16:30:39;19.60;56.10
24744;DHT22;12844;52.110;5.548;2022-10-20T16:33:04;19.60;55.30
24744;DHT22;12844;52.110;5.548;2022-10-20T16:35:30;19.60;55.30
24744;DHT22;12844;52.110;5.548;2022-10-20T16:37:55;19.60;55.30
24744;DHT22;12844;52.110;5.548;2022-10-20T16:40:21;19.60;55.30
24744;DHT22;12844;52.110;5.548;2022-10-20T16:42:46;19.60;55.30
24744;DHT22;12844;52.110;5.548;2022-10-20T16:45:12;19.60;55.30
24744;DHT22;12844;52.110;5.548;2022-10-20T16:47:38;19.60;55.20
24744;DHT22;12844;52.110;5.548;2022-10-20T16:50:04;19.70;55.30
24744;DHT22;12844;52.110;5.548;2022-10-20T16:52:30;19.60;55.30
24744;DHT22;12844;52.110;5.548;2022-10-20T16:54:57;19.60;55.30
24744;DHT22;12844;52.110;5.548;2022-10-20T16:57:22;19.60;55.30
24744;DHT22;12844;52.110;5.548;2022-10-20T16:59:48;19.60;55.30
24744;DHT22;12844;52.110;5.548;2022-10-20T17:02:15;19.60;55.30
24744;DHT22;12844;52.110;5.548;2022-10-20T17:04:41;19.60;55.30
24744;DHT22;12844;52.110;5.548;2022-10-20T17:07:07;19.60;55.30
24744;DHT22;12844;52.110;5.548;2022-10-20T17:09:33;19.60;55.30
24744;DHT22;12844;52.110;5.548;2022-10-20T17:11:59;19.60;55.30
24744;DHT22;12844;52.110;5.548;2022-10-20T17:14:24;19.60;55.30
24744;DHT22;12844;52.110;5.548;2022-10-20T17:16:50;19.70;55.30
24744;DHT22;12844;52.110;5.548;2022-10-20T17:19:15;19.60;55.30
24744;DHT22;12844;52.110;5.548;2022-10-20T17:21:41;19.60;55.30
24744;DHT22;12844;52.110;5.548;2022-10-20T17:24:11;19.60;55.30
24744;DHT22;12844;52.110;5.548;2022-10-20T17:26:37;19.60;55.30
24744;DHT22;12844;52.110;5.548;2022-10-20T17:29:03;19.60;55.30
24744;DHT22;12844;52.110;5.548;2022-10-20T17:31:29;19.60;55.30
24744;DHT22;12844;52.110;5.548;2022-10-20T17:33:56;19.60;55.30
24744;DHT22;12844;52.110;5.548;2022-10-20T17:36:23;19.60;55.30
24744;DHT22;12844;52.110;5.548;2022-10-20T17:38:54;19.60;55.30
24744;DHT22;12844;52.110;5.548;2022-10-20T17:41:20;19.70;55.40
24744;DHT22;12844;52.110;5.548;2022-10-20T17:43:46;19.60;55.30
24744;DHT22;12844;52.110;5.548;2022-10-20T17:46:14;19.60;55.30
24744;DHT22;12844;52.110;5.548;2022-10-20T17:48:40;19.60;55.30
24744;DHT22;12844;52.110;5.548;2022-10-20T17:51:11;19.60;55.40
24744;DHT22;12844;52.110;5.548;2022-10-20T17:53:40;19.60;55.40
24744;DHT22;12844;52.110;5.548;2022-10-20T17:56:08;19.60;55.40
24744;DHT22;12844;52.110;5.548;2022-10-20T17:58:34;19.60;55.40
24744;DHT22;12844;52.110;5.548;2022-10-20T18:01:10;19.60;55.40
24744;DHT22;12844;52.110;5.548;2022-10-20T18:03:36;19.60;55.40
24744;DHT22;12844;52.110;5.548;2022-10-20T18:06:10;19.60;55.40